createdAt,value
2022-11-25T00:01:29.580Z,3.55
2022-11-25T00:03:58.034Z,2.50
2022-11-25T00:06:29.682Z,1.98
2022-11-25T00:09:06.384Z,2.53
2022-11-25T00:11:40.515Z,2.63
2022-11-25T00:14:10.332Z,2.37
2022-11-25T00:16:37.140Z,2.20
2022-11-25T00:19:03.931Z,3.65
2022-11-25T00:21:49.175Z,2.38
2022-11-25T00:24:17.097Z,3.25
2022-11-25T00:26:44.447Z,2.08
2022-11-25T00:29:13.005Z,2.35
2022-11-25T00:31:40.718Z,2.90
2022-11-25T00:34:11.355Z,1.73
2022-11-25T00:36:38.181Z,1.40
2022-11-25T00:39:12.900Z,1.83
2022-11-25T00:41:58.442Z,2.13
2022-11-25T00:44:38.593Z,1.83
2022-11-25T00:47:34.755Z,1.42
2022-11-25T00:50:01.551Z,2.60
2022-11-25T00:52:28.376Z,0.93
2022-11-25T00:54:55.244Z,1.50
2022-11-25T00:57:23.630Z,1.50
2022-11-25T00:59:50.778Z,1.42
2022-11-25T01:02:21.130Z,1.77
2022-11-25T01:04:48.196Z,1.10
2022-11-25T01:07:16.718Z,1.33
2022-11-25T01:09:43.501Z,2.22
2022-11-25T01:12:10.348Z,1.70
2022-11-25T01:14:37.879Z,1.70
2022-11-25T01:17:04.824Z,1.33
2022-11-25T01:19:33.080Z,1.85
2022-11-25T01:22:00.424Z,1.70
2022-11-25T01:24:27.135Z,2.05
2022-11-25T01:26:54.916Z,2.33
2022-11-25T01:29:22.470Z,2.22
2022-11-25T01:31:50.027Z,1.38
2022-11-25T01:34:24.969Z,1.85
2022-11-25T01:37:29.044Z,2.45
2022-11-25T01:39:55.784Z,2.60
2022-11-25T01:43:00.349Z,1.88
2022-11-25T01:45:36.547Z,1.75
2022-11-25T01:48:12.708Z,2.25
2022-11-25T01:50:41.929Z,2.13
2022-11-25T01:53:10.852Z,1.88
2022-11-25T01:55:40.762Z,2.15
2022-11-25T01:58:12.425Z,2.25
2022-11-25T02:00:39.704Z,2.20
2022-11-25T02:03:07.204Z,1.40
2022-11-25T02:05:46.550Z,1.35
2022-11-25T02:08:14.487Z,1.50
2022-11-25T02:10:43.653Z,1.52
2022-11-25T02:13:10.996Z,1.23
2022-11-25T02:15:37.800Z,1.80
2022-11-25T02:18:23.542Z,1.05
2022-11-25T02:21:08.795Z,1.00
2022-11-25T02:24:10.758Z,1.20
2022-11-25T02:26:56.731Z,0.75
2022-11-25T02:29:23.699Z,1.00
2022-11-25T02:32:09.474Z,1.23
2022-11-25T02:34:54.928Z,1.15
2022-11-25T02:37:24.524Z,0.98
2022-11-25T02:39:52.829Z,0.98
2022-11-25T02:42:21.471Z,1.08
2022-11-25T02:44:49.679Z,1.00
2022-11-25T02:47:17.428Z,1.30
2022-11-25T02:49:45.402Z,0.68
2022-11-25T02:52:12.262Z,1.00
2022-11-25T02:54:39.356Z,1.15
2022-11-25T02:57:06.253Z,0.93
2022-11-25T02:59:35.141Z,1.00
2022-11-25T03:02:02.266Z,1.00
2022-11-25T03:04:29.205Z,0.88
2022-11-25T03:06:56.131Z,0.95
2022-11-25T03:09:24.249Z,1.38
2022-11-25T03:12:09.522Z,1.17
2022-11-25T03:14:36.494Z,0.82
2022-11-25T03:17:03.459Z,0.90
2022-11-25T03:19:30.618Z,1.67
2022-11-25T03:21:57.399Z,0.90
2022-11-25T03:24:24.225Z,0.98
2022-11-25T03:26:51.272Z,1.30
2022-11-25T03:29:18.716Z,0.90
2022-11-25T03:31:46.443Z,1.33
2022-11-25T03:34:13.709Z,1.92
2022-11-25T03:36:41.086Z,1.50
2022-11-25T03:39:26.721Z,0.82
2022-11-25T03:42:12.736Z,1.67
2022-11-25T03:44:39.793Z,1.27
2022-11-25T03:47:07.010Z,1.27
2022-11-25T03:49:33.863Z,1.00
2022-11-25T03:52:01.259Z,1.15
2022-11-25T03:54:28.174Z,1.20
2022-11-25T03:57:15.494Z,1.20
2022-11-25T03:59:42.663Z,1.13
2022-11-25T04:02:09.990Z,1.55
2022-11-25T04:04:37.279Z,1.60
2022-11-25T04:07:04.216Z,1.15
2022-11-25T04:09:31.043Z,1.48
2022-11-25T04:12:18.687Z,1.20
2022-11-25T04:14:55.437Z,1.17
2022-11-25T04:17:23.036Z,1.13
2022-11-25T04:19:50.979Z,1.48
2022-11-25T04:22:18.056Z,1.30
2022-11-25T04:24:46.570Z,0.90
2022-11-25T04:27:19.232Z,1.83
2022-11-25T04:29:47.740Z,1.27
2022-11-25T04:32:15.813Z,1.63
2022-11-25T04:34:42.704Z,1.67
2022-11-25T04:37:09.467Z,1.40
2022-11-25T04:39:36.636Z,1.60
2022-11-25T04:42:28.521Z,2.47
2022-11-25T04:45:20.955Z,1.40
2022-11-25T04:50:30.213Z,0.80
2022-11-25T04:53:15.429Z,1.10
2022-11-25T04:55:42.880Z,1.25
2022-11-25T04:58:35.251Z,1.20
2022-11-25T05:01:02.818Z,0.90
2022-11-25T05:03:29.645Z,1.10
2022-11-25T05:05:56.411Z,1.13
2022-11-25T05:08:24.022Z,1.17
2022-11-25T05:10:50.829Z,1.10
2022-11-25T05:13:17.562Z,1.63
2022-11-25T05:18:28.613Z,1.13
2022-11-25T05:20:55.389Z,1.97
2022-11-25T05:23:22.721Z,1.00
2022-11-25T05:25:49.591Z,1.23
2022-11-25T05:28:30.237Z,1.07
2022-11-25T05:31:15.240Z,1.33
2022-11-25T05:33:43.209Z,1.50
2022-11-25T05:36:10.999Z,1.20
2022-11-25T05:38:44.050Z,1.17
2022-11-25T05:41:14.013Z,1.47
2022-11-25T05:43:43.429Z,1.07
2022-11-25T05:46:10.821Z,1.03
2022-11-25T05:48:43.887Z,1.30
2022-11-25T05:51:11.049Z,1.47
2022-11-25T05:53:39.547Z,1.10
2022-11-25T05:56:07.511Z,1.27
2022-11-25T05:59:01.102Z,1.33
2022-11-25T06:01:40.852Z,1.20
2022-11-25T06:04:07.958Z,1.37
2022-11-25T06:06:34.828Z,1.08
2022-11-25T06:09:01.796Z,1.10
2022-11-25T06:11:30.470Z,0.93
2022-11-25T06:13:58.108Z,1.00
2022-11-25T06:16:25.182Z,1.47
2022-11-25T06:19:05.651Z,1.30
2022-11-25T06:21:33.356Z,1.25
2022-11-25T06:24:01.111Z,1.55
2022-11-25T06:26:29.624Z,0.93
2022-11-25T06:28:56.927Z,1.60
2022-11-25T06:31:26.065Z,1.17
2022-11-25T06:34:12.784Z,1.27
2022-11-25T06:36:41.010Z,1.10
2022-11-25T06:39:07.840Z,1.23
2022-11-25T06:41:34.609Z,1.53
2022-11-25T06:44:01.375Z,1.83
2022-11-25T06:46:28.128Z,1.37
2022-11-25T06:48:54.884Z,1.37
2022-11-25T06:51:21.851Z,1.27
2022-11-25T06:53:48.647Z,1.60
2022-11-25T06:56:26.112Z,1.30
2022-11-25T06:58:53.702Z,1.50
2022-11-25T07:01:26.215Z,0.83
2022-11-25T07:03:55.468Z,1.60
2022-11-25T07:06:22.755Z,1.20
2022-11-25T07:08:50.209Z,1.17
2022-11-25T07:11:37.097Z,1.13
2022-11-25T07:14:06.812Z,0.90
2022-11-25T07:16:34.504Z,0.93
2022-11-25T07:19:02.627Z,1.43
2022-11-25T07:21:30.917Z,1.80
2022-11-25T07:24:16.969Z,1.77
2022-11-25T07:26:44.353Z,1.10
2022-11-25T07:29:43.966Z,1.20
2022-11-25T07:32:05.644Z,1.20
2022-11-25T07:34:34.013Z,1.37
2022-11-25T07:37:00.732Z,1.00
2022-11-25T07:39:27.709Z,1.70
2022-11-25T07:41:55.213Z,1.37
2022-11-25T07:44:22.095Z,1.80
2022-11-25T07:46:52.294Z,1.50
2022-11-25T07:49:22.128Z,1.17
2022-11-25T07:51:51.462Z,1.20
2022-11-25T07:54:18.386Z,1.13
2022-11-25T07:57:23.310Z,1.27
2022-11-25T07:59:50.149Z,1.27
2022-11-25T08:02:16.880Z,1.50
2022-11-25T08:04:43.734Z,1.13
2022-11-25T08:07:11.204Z,1.83
2022-11-25T08:09:38.393Z,0.90
2022-11-25T08:12:05.583Z,0.90
2022-11-25T08:14:32.426Z,0.90
2022-11-25T08:16:59.184Z,1.10
2022-11-25T08:19:31.172Z,1.03
2022-11-25T08:21:58.389Z,1.17
2022-11-25T08:24:25.118Z,1.03
2022-11-25T08:26:53.305Z,0.90
2022-11-25T08:29:20.144Z,0.60
2022-11-25T08:32:11.594Z,1.20
2022-11-25T08:37:24.342Z,1.00
2022-11-25T08:39:52.933Z,1.13
2022-11-25T08:42:20.486Z,0.90
2022-11-25T08:44:51.921Z,0.50
2022-11-25T08:47:18.925Z,0.50
2022-11-25T08:49:45.689Z,0.53
2022-11-25T08:52:12.492Z,0.80
2022-11-25T08:54:39.288Z,0.70
2022-11-25T08:57:06.228Z,0.70
2022-11-25T08:59:32.988Z,0.70
2022-11-25T09:01:59.982Z,1.00
2022-11-25T09:04:26.805Z,1.10
2022-11-25T09:06:53.603Z,0.73
2022-11-25T09:09:20.448Z,1.03
2022-11-25T09:11:47.350Z,0.40
2022-11-25T09:14:14.538Z,0.93
2022-11-25T09:16:41.348Z,0.90
2022-11-25T09:19:08.309Z,0.70
2022-11-25T09:21:35.108Z,0.80
2022-11-25T09:24:02.353Z,0.77
2022-11-25T09:26:49.388Z,0.70
2022-11-25T09:29:16.213Z,1.17
2022-11-25T09:31:42.985Z,0.60
2022-11-25T09:34:10.031Z,0.93
2022-11-25T09:36:36.884Z,0.93
2022-11-25T09:39:04.699Z,0.77
2022-11-25T09:42:17.567Z,0.93
2022-11-25T09:45:05.650Z,0.67
2022-11-25T09:47:57.843Z,0.93
2022-11-25T09:51:02.674Z,0.73
2022-11-25T09:53:38.480Z,1.70
2022-11-25T09:56:14.364Z,1.00
2022-11-25T09:59:18.835Z,1.37
2022-11-25T10:01:52.630Z,1.07
2022-11-25T10:04:37.860Z,1.33
2022-11-25T10:07:11.320Z,1.70
2022-11-25T10:09:38.432Z,1.50
2022-11-25T10:12:18.091Z,1.40
2022-11-25T10:14:47.177Z,1.70
2022-11-25T10:17:26.109Z,1.90
2022-11-25T10:20:15.194Z,1.33
2022-11-25T10:22:45.575Z,1.00
2022-11-25T10:25:37.536Z,1.55
2022-11-25T10:28:25.565Z,1.60
2022-11-25T10:31:12.284Z,0.80
2022-11-25T10:33:46.699Z,2.03
2022-11-25T10:36:19.291Z,2.38
2022-11-25T10:39:24.598Z,1.87
2022-11-25T10:42:26.896Z,1.27
2022-11-25T10:44:54.993Z,1.67
2022-11-25T10:47:45.508Z,1.67
2022-11-25T10:50:55.094Z,1.70
2022-11-25T10:53:26.888Z,2.17
2022-11-25T10:56:03.620Z,1.50
2022-11-25T10:58:35.218Z,1.65
2022-11-25T11:01:07.090Z,1.80
2022-11-25T11:03:53.639Z,2.15
2022-11-25T11:06:38.239Z,3.58
2022-11-25T11:09:05.563Z,2.90
2022-11-25T11:11:32.715Z,2.63
2022-11-25T11:14:13.605Z,2.33
2022-11-25T11:16:43.142Z,2.08
2022-11-25T11:19:28.564Z,2.80
2022-11-25T11:21:56.997Z,2.10
2022-11-25T11:24:28.479Z,2.15
2022-11-25T11:27:21.306Z,2.42
2022-11-25T11:29:48.787Z,3.67
2022-11-25T11:32:24.144Z,2.35
2022-11-25T11:34:53.996Z,2.80
2022-11-25T11:37:42.438Z,2.00
2022-11-25T11:40:09.125Z,2.55
2022-11-25T11:42:47.961Z,2.80
2022-11-25T11:45:56.574Z,3.05
2022-11-25T11:48:33.904Z,2.78
2022-11-25T11:51:17.561Z,1.52
2022-11-25T11:54:10.144Z,2.40
2022-11-25T11:56:54.881Z,2.25
2022-11-25T11:59:42.356Z,3.15
2022-11-25T12:02:38.107Z,2.22
2022-11-25T12:05:10.940Z,2.17
2022-11-25T12:07:55.843Z,1.95
2022-11-25T12:10:49.880Z,2.97
2022-11-25T12:13:27.621Z,2.95
2022-11-25T12:16:04.127Z,2.72
2022-11-25T12:18:49.897Z,2.35
2022-11-25T12:24:47.239Z,2.22
2022-11-25T12:27:33.391Z,2.65
2022-11-25T12:30:20.528Z,2.47
2022-11-25T12:33:04.065Z,4.40
2022-11-25T12:35:57.345Z,2.23
2022-11-25T12:38:51.833Z,2.38
2022-11-25T12:41:27.193Z,2.23
2022-11-25T12:44:23.677Z,3.58
2022-11-25T12:47:11.528Z,1.85
2022-11-25T12:49:46.387Z,2.83
2022-11-25T12:52:36.227Z,2.47
2022-11-25T12:55:12.350Z,2.33
2022-11-25T12:58:10.551Z,1.95
2022-11-25T13:03:52.218Z,1.55
2022-11-25T13:06:43.306Z,2.85
2022-11-25T13:09:27.947Z,1.92
2022-11-25T13:12:01.250Z,2.60
2022-11-25T13:14:53.995Z,2.22
2022-11-25T13:17:23.616Z,2.25
2022-11-25T13:20:28.453Z,2.63
2022-11-25T13:23:13.704Z,2.80
2022-11-25T13:26:36.300Z,2.35
2022-11-25T13:29:14.988Z,2.00
2022-11-25T13:32:02.329Z,1.52
2022-11-25T13:34:36.658Z,1.63
2022-11-25T13:37:41.467Z,1.67
2022-11-25T13:40:33.748Z,1.15
2022-11-25T13:43:21.831Z,1.77
2022-11-25T13:45:49.069Z,1.20
2022-11-25T13:48:32.410Z,1.80
2022-11-25T13:51:22.043Z,1.45
2022-11-25T13:54:00.406Z,1.17
2022-11-25T13:56:31.938Z,1.27
2022-11-25T13:59:10.785Z,1.17
2022-11-25T14:02:27.943Z,0.65
2022-11-25T14:04:59.973Z,0.40
2022-11-25T14:07:36.784Z,0.50
2022-11-25T14:10:25.473Z,0.13
2022-11-25T14:13:29.742Z,0.30
2022-11-25T14:16:40.896Z,0.22
2022-11-25T14:19:50.243Z,0.32
2022-11-25T14:22:27.881Z,0.20
2022-11-25T14:25:18.603Z,0.55
2022-11-25T14:27:48.905Z,0.30
2022-11-25T14:30:17.541Z,0.20
2022-11-25T14:33:02.144Z,0.10
2022-11-25T14:35:45.129Z,0.40
2022-11-25T14:38:39.914Z,0.50
2022-11-25T14:41:36.638Z,0.40
2022-11-25T14:44:12.408Z,0.50
2022-11-25T14:46:53.468Z,0.30
2022-11-25T14:50:05.124Z,0.38
2022-11-25T14:52:36.938Z,0.45
2022-11-25T14:55:05.992Z,0.30
2022-11-25T14:57:36.266Z,0.20
2022-11-25T15:00:11.190Z,0.40
2022-11-25T15:02:51.566Z,0.38
2022-11-25T15:05:38.184Z,0.20
2022-11-25T15:08:07.752Z,0.30
2022-11-25T15:10:59.057Z,0.60
2022-11-25T15:13:35.898Z,0.25
2022-11-25T15:16:22.617Z,0.20
2022-11-25T15:18:52.804Z,0.20
2022-11-25T15:24:53.260Z,0.45
2022-11-25T15:27:27.720Z,0.40
2022-11-25T15:29:57.111Z,0.38
2022-11-25T15:32:27.039Z,0.90
2022-11-25T15:34:56.330Z,0.90
2022-11-25T15:37:24.167Z,0.60
2022-11-25T15:40:29.521Z,0.40
2022-11-25T15:42:59.450Z,0.60
2022-11-25T15:45:30.009Z,0.57
2022-11-25T15:47:57.470Z,0.50
2022-11-25T15:50:26.846Z,0.60
2022-11-25T15:52:57.508Z,1.00
2022-11-25T15:55:36.246Z,0.50
2022-11-25T15:58:17.796Z,0.30
2022-11-25T16:01:04.931Z,0.40
2022-11-25T16:03:33.750Z,0.50
2022-11-25T16:06:23.618Z,0.47
2022-11-25T16:09:00.168Z,0.60
2022-11-25T16:11:34.041Z,0.30
2022-11-25T16:14:28.043Z,0.77
2022-11-25T16:17:03.811Z,0.83
2022-11-25T16:19:37.828Z,1.50
2022-11-25T16:22:06.017Z,1.10
2022-11-25T16:24:40.819Z,1.17
2022-11-25T16:27:17.852Z,1.00
2022-11-25T16:29:54.657Z,0.90
2022-11-25T16:32:30.788Z,1.40
2022-11-25T16:35:12.785Z,0.80
2022-11-25T16:37:42.749Z,1.20
2022-11-25T16:40:14.067Z,0.90
2022-11-25T16:42:41.129Z,0.70
2022-11-25T16:45:44.106Z,0.63
2022-11-25T16:48:17.309Z,0.50
2022-11-25T16:53:30.730Z,0.70
2022-11-25T16:55:57.590Z,0.80
2022-11-25T16:58:43.626Z,1.17
2022-11-25T17:01:16.972Z,1.37
2022-11-25T17:03:44.660Z,1.63
2022-11-25T17:06:21.962Z,1.70
2022-11-25T17:08:50.588Z,3.67
2022-11-25T17:11:30.737Z,3.43
2022-11-25T17:14:00.969Z,3.43
2022-11-25T17:16:46.368Z,4.30
2022-11-25T17:19:15.978Z,2.70
2022-11-25T17:21:44.001Z,3.17
2022-11-25T17:24:23.051Z,2.60
2022-11-25T17:27:02.684Z,2.93
2022-11-25T17:29:40.170Z,2.87
2022-11-25T17:32:07.352Z,1.97
2022-11-25T17:34:38.188Z,1.97
2022-11-25T17:37:36.817Z,2.10
2022-11-25T17:40:03.927Z,1.30
2022-11-25T17:42:32.378Z,1.70
2022-11-25T17:45:00.437Z,1.20
2022-11-25T17:50:14.327Z,1.57
2022-11-25T17:52:41.092Z,1.37
2022-11-25T17:55:08.279Z,0.97
2022-11-25T17:57:35.328Z,1.30
2022-11-25T18:00:59.173Z,1.20
2022-11-25T18:03:26.107Z,0.83
2022-11-25T18:05:53.052Z,1.50
2022-11-25T18:08:38.361Z,1.17
2022-11-25T18:11:26.076Z,0.87
2022-11-25T18:13:52.938Z,0.97
2022-11-25T18:16:57.401Z,1.70
2022-11-25T18:19:24.348Z,1.70
2022-11-25T18:21:51.132Z,1.53
2022-11-25T18:24:17.875Z,1.60
2022-11-25T18:26:49.193Z,1.60
2022-11-25T18:29:25.109Z,1.90
2022-11-25T18:31:55.897Z,1.50
2022-11-25T18:34:59.950Z,1.67
2022-11-25T18:37:26.722Z,1.63
2022-11-25T18:39:53.456Z,2.27
2022-11-25T18:42:29.149Z,1.47
2022-11-25T18:44:56.643Z,1.40
2022-11-25T18:47:23.603Z,1.63
2022-11-25T18:49:55.372Z,1.73
2022-11-25T18:52:41.856Z,1.83
2022-11-25T18:55:12.005Z,5.27
2022-11-25T18:57:40.240Z,3.70
2022-11-25T19:03:24.374Z,3.13
2022-11-25T19:05:54.246Z,3.00
2022-11-25T19:08:21.240Z,2.70
2022-11-25T19:10:48.897Z,2.50
2022-11-25T19:13:35.754Z,2.00
2022-11-25T19:16:07.866Z,1.80
2022-11-25T19:18:53.281Z,2.10
2022-11-25T19:21:21.040Z,2.07
2022-11-25T19:26:58.701Z,1.53
2022-11-25T19:29:41.514Z,1.60
2022-11-25T19:32:29.707Z,2.07
2022-11-25T19:35:16.112Z,1.90
2022-11-25T19:37:43.252Z,1.70
2022-11-25T19:40:14.908Z,1.60
2022-11-25T19:42:41.932Z,1.47
2022-11-25T19:45:12.729Z,2.40
2022-11-25T19:47:40.280Z,1.87
2022-11-25T19:50:07.604Z,1.80
2022-11-25T19:52:38.096Z,2.13
2022-11-25T19:55:28.635Z,2.10
2022-11-25T19:58:15.831Z,1.60
2022-11-25T20:00:46.095Z,3.00
2022-11-25T20:03:22.131Z,3.07
2022-11-25T20:06:08.074Z,3.00
2022-11-25T20:08:34.929Z,3.47
2022-11-25T20:11:01.728Z,3.67
2022-11-25T20:13:28.561Z,2.47
2022-11-25T20:15:56.288Z,2.80
2022-11-25T20:18:25.315Z,2.73
2022-11-25T20:21:03.669Z,3.20
2022-11-25T20:23:43.010Z,3.90
2022-11-25T20:26:29.710Z,2.70
2022-11-25T20:28:56.747Z,3.43
2022-11-25T20:31:28.721Z,2.03
2022-11-25T20:33:57.042Z,2.63
2022-11-25T20:36:30.932Z,2.90
2022-11-25T20:38:59.807Z,3.10
2022-11-25T20:41:28.325Z,3.63
2022-11-25T20:43:57.397Z,3.30
2022-11-25T20:46:30.046Z,3.60
2022-11-25T20:49:00.435Z,3.07
2022-11-25T20:51:28.200Z,3.47
2022-11-25T20:54:14.625Z,3.93
2022-11-25T20:56:41.478Z,2.97
2022-11-25T20:59:34.476Z,2.83
2022-11-25T21:02:21.709Z,3.73
2022-11-25T21:05:08.044Z,3.47
2022-11-25T21:07:34.926Z,2.73
2022-11-25T21:10:01.971Z,3.53
2022-11-25T21:12:48.031Z,2.73
2022-11-25T21:15:33.515Z,3.57
2022-11-25T21:18:00.324Z,4.80
2022-11-25T21:20:27.365Z,3.40
2022-11-25T21:22:58.032Z,3.53
2022-11-25T21:25:25.845Z,2.83
2022-11-25T21:27:52.813Z,4.30
2022-11-25T21:30:38.833Z,3.77
2022-11-25T21:33:06.052Z,4.00
2022-11-25T21:35:51.744Z,3.87
2022-11-25T21:38:22.740Z,3.80
2022-11-25T21:40:55.231Z,3.73
2022-11-25T21:43:32.523Z,3.67
2022-11-25T21:46:27.023Z,3.80
2022-11-25T21:48:53.968Z,3.00
2022-11-25T21:51:27.084Z,3.97
2022-11-25T21:54:13.371Z,3.33
2022-11-25T21:56:40.277Z,4.40
2022-11-25T21:59:08.291Z,3.37
2022-11-25T22:01:35.110Z,4.53
2022-11-25T22:04:01.830Z,4.63
2022-11-25T22:06:30.594Z,3.63
2022-11-25T22:08:58.070Z,3.03
2022-11-25T22:11:31.193Z,2.90
2022-11-25T22:13:59.623Z,3.13
2022-11-25T22:16:31.567Z,3.97
2022-11-25T22:21:43.847Z,2.80
2022-11-25T22:24:19.061Z,3.13
2022-11-25T22:26:47.763Z,3.80
2022-11-25T22:29:17.273Z,3.00
2022-11-25T22:31:44.720Z,2.87
2022-11-25T22:34:23.173Z,2.42
2022-11-25T22:36:51.230Z,3.10
2022-11-25T22:39:23.826Z,2.60
2022-11-25T22:42:09.726Z,2.17
2022-11-25T22:44:36.784Z,2.17
2022-11-25T22:47:04.423Z,2.70
2022-11-25T22:49:42.167Z,2.27
2022-11-25T22:52:28.888Z,2.13
2022-11-25T22:55:16.239Z,2.03
2022-11-25T22:57:43.077Z,2.23
2022-11-25T23:00:12.738Z,2.70
2022-11-25T23:02:39.707Z,2.10
2022-11-25T23:05:14.961Z,2.80
2022-11-25T23:07:41.947Z,2.43
2022-11-25T23:10:18.280Z,1.97
2022-11-25T23:12:45.381Z,1.80
2022-11-25T23:18:04.127Z,2.37
2022-11-25T23:20:33.783Z,1.90
2022-11-25T23:23:16.475Z,2.23
2022-11-25T23:25:44.111Z,1.33
2022-11-25T23:28:11.529Z,1.50
2022-11-25T23:30:41.421Z,2.20
2022-11-25T23:33:16.109Z,1.70
2022-11-25T23:35:42.923Z,1.47
2022-11-25T23:38:18.293Z,1.70
2022-11-25T23:40:45.184Z,2.05
2022-11-25T23:43:30.813Z,2.22
2022-11-25T23:45:57.739Z,1.60
2022-11-25T23:48:27.915Z,1.67
2022-11-25T23:50:57.213Z,1.92
2022-11-25T23:53:28.511Z,2.73
2022-11-25T23:55:55.348Z,2.00
2022-11-25T23:58:23.439Z,2.20
